sensor_id;sensor_type;location;lat;lon;timestamp;temperature;humidity
30280;DHT22;17097;50.916;5.344;2023-04-06T00:02:17;7.20;99.90
30280;DHT22;17097;50.916;5.344;2023-04-06T00:04:46;7.20;99.90
30280;DHT22;17097;50.916;5.344;2023-04-06T00:07:12;7.10;99.90
30280;DHT22;17097;50.916;5.344;2023-04-06T00:09:38;7.00;99.90
30280;DHT22;17097;50.916;5.344;2023-04-06T00:12:04;6.90;99.90
30280;DHT22;17097;50.916;5.344;2023-04-06T00:14:30;6.90;99.90
30280;DHT22;17097;50.916;5.344;2023-04-06T00:16:57;6.90;99.90
30280;DHT22;17097;50.916;5.344;2023-04-06T00:19:22;7.00;99.90
30280;DHT22;17097;50.916;5.344;2023-04-06T00:21:48;6.90;99.90
30280;DHT22;17097;50.916;5.344;2023-04-06T00:24:15;6.90;99.90
30280;DHT22;17097;50.916;5.344;2023-04-06T00:26:41;6.90;99.90
30280;DHT22;17097;50.916;5.344;2023-04-06T00:29:06;6.80;99.90
30280;DHT22;17097;50.916;5.344;2023-04-06T00:31:32;6.70;99.90
30280;DHT22;17097;50.916;5.344;2023-04-06T00:33:58;6.70;99.90
30280;DHT22;17097;50.916;5.344;2023-04-06T00:36:24;6.70;99.90
30280;DHT22;17097;50.916;5.344;2023-04-06T00:38:50;6.60;99.90
30280;DHT22;17097;50.916;5.344;2023-04-06T00:41:17;6.60;99.90
30280;DHT22;17097;50.916;5.344;2023-04-06T00:43:45;6.60;99.90
30280;DHT22;17097;50.916;5.344;2023-04-06T00:46:13;6.60;99.90
30280;DHT22;17097;50.916;5.344;2023-04-06T00:48:39;6.60;99.90
30280;DHT22;17097;50.916;5.344;2023-04-06T00:51:06;6.50;99.90
30280;DHT22;17097;50.916;5.344;2023-04-06T00:53:31;6.40;99.90
30280;DHT22;17097;50.916;5.344;2023-04-06T00:55:57;6.40;99.90
30280;DHT22;17097;50.916;5.344;2023-04-06T00:58:24;6.30;99.90
30280;DHT22;17097;50.916;5.344;2023-04-06T01:00:50;6.30;99.90
30280;DHT22;17097;50.916;5.344;2023-04-06T01:03:18;6.30;99.90
30280;DHT22;17097;50.916;5.344;2023-04-06T01:05:46;6.30;99.90
30280;DHT22;17097;50.916;5.344;2023-04-06T01:08:12;6.30;99.90
30280;DHT22;17097;50.916;5.344;2023-04-06T01:10:38;6.30;99.90
30280;DHT22;17097;50.916;5.344;2023-04-06T01:13:03;6.20;99.90
30280;DHT22;17097;50.916;5.344;2023-04-06T01:15:29;6.10;99.90
30280;DHT22;17097;50.916;5.344;2023-04-06T01:17:55;6.20;99.90
30280;DHT22;17097;50.916;5.344;2023-04-06T01:20:21;6.20;99.90
30280;DHT22;17097;50.916;5.344;2023-04-06T01:22:49;6.20;99.90
30280;DHT22;17097;50.916;5.344;2023-04-06T01:25:15;6.10;99.90
30280;DHT22;17097;50.916;5.344;2023-04-06T01:27:40;6.00;99.90
30280;DHT22;17097;50.916;5.344;2023-04-06T01:30:06;6.00;99.90
30280;DHT22;17097;50.916;5.344;2023-04-06T01:32:32;5.90;99.90
30280;DHT22;17097;50.916;5.344;2023-04-06T01:34:58;5.90;99.90
30280;DHT22;17097;50.916;5.344;2023-04-06T01:37:26;5.90;99.90
30280;DHT22;17097;50.916;5.344;2023-04-06T01:39:57;5.80;99.90
30280;DHT22;17097;50.916;5.344;2023-04-06T01:42:23;5.80;99.90
30280;DHT22;17097;50.916;5.344;2023-04-06T01:44:48;5.80;99.90
30280;DHT22;17097;50.916;5.344;2023-04-06T01:47:14;5.80;99.90
30280;DHT22;17097;50.916;5.344;2023-04-06T01:49:42;5.80;99.90
30280;DHT22;17097;50.916;5.344;2023-04-06T01:52:08;5.80;99.90
30280;DHT22;17097;50.916;5.344;2023-04-06T01:54:33;5.80;99.90
30280;DHT22;17097;50.916;5.344;2023-04-06T01:56:59;5.70;99.90
30280;DHT22;17097;50.916;5.344;2023-04-06T01:59:25;5.80;99.90
30280;DHT22;17097;50.916;5.344;2023-04-06T02:01:50;5.80;99.90
30280;DHT22;17097;50.916;5.344;2023-04-06T02:04:16;5.80;99.90
30280;DHT22;17097;50.916;5.344;2023-04-06T02:06:42;5.80;99.90
30280;DHT22;17097;50.916;5.344;2023-04-06T02:09:07;5.70;99.90
30280;DHT22;17097;50.916;5.344;2023-04-06T02:11:33;5.70;99.90
30280;DHT22;17097;50.916;5.344;2023-04-06T02:13:59;5.70;99.90
30280;DHT22;17097;50.916;5.344;2023-04-06T02:16:26;5.70;99.90
30280;DHT22;17097;50.916;5.344;2023-04-06T02:18:51;5.70;99.90
30280;DHT22;17097;50.916;5.344;2023-04-06T02:21:19;5.70;99.90
30280;DHT22;17097;50.916;5.344;2023-04-06T02:23:46;5.70;99.90
30280;DHT22;17097;50.916;5.344;2023-04-06T02:26:12;5.70;99.90
30280;DHT22;17097;50.916;5.344;2023-04-06T02:28:38;5.70;99.90
30280;DHT22;17097;50.916;5.344;2023-04-06T02:31:03;5.70;99.90
30280;DHT22;17097;50.916;5.344;2023-04-06T02:33:29;5.80;99.90
30280;DHT22;17097;50.916;5.344;2023-04-06T02:35:55;5.70;99.90
30280;DHT22;17097;50.916;5.344;2023-04-06T02:38:20;5.70;99.90
30280;DHT22;17097;50.916;5.344;2023-04-06T02:40:48;5.70;99.90
30280;DHT22;17097;50.916;5.344;2023-04-06T02:43:16;5.70;99.90
30280;DHT22;17097;50.916;5.344;2023-04-06T02:45:42;5.70;99.90
30280;DHT22;17097;50.916;5.344;2023-04-06T02:48:11;5.70;99.90
30280;DHT22;17097;50.916;5.344;2023-04-06T02:50:36;5.70;99.90
30280;DHT22;17097;50.916;5.344;2023-04-06T02:53:02;5.70;99.90
30280;DHT22;17097;50.916;5.344;2023-04-06T02:55:27;5.70;99.90
30280;DHT22;17097;50.916;5.344;2023-04-06T02:57:53;5.70;99.90
30280;DHT22;17097;50.916;5.344;2023-04-06T03:00:19;5.80;99.90
30280;DHT22;17097;50.916;5.344;2023-04-06T03:02:45;5.80;99.90
30280;DHT22;17097;50.916;5.344;2023-04-06T03:05:10;5.90;99.90
30280;DHT22;17097;50.916;5.344;2023-04-06T03:07:36;5.90;99.90
30280;DHT22;17097;50.916;5.344;2023-04-06T03:10:01;5.90;99.90
30280;DHT22;17097;50.916;5.344;2023-04-06T03:12:27;6.00;99.90
30280;DHT22;17097;50.916;5.344;2023-04-06T03:14:53;6.00;99.90
30280;DHT22;17097;50.916;5.344;2023-04-06T03:17:19;6.00;99.90
30280;DHT22;17097;50.916;5.344;2023-04-06T03:19:45;6.10;99.90
30280;DHT22;17097;50.916;5.344;2023-04-06T03:22:11;6.10;99.90
30280;DHT22;17097;50.916;5.344;2023-04-06T03:24:37;6.10;99.90
30280;DHT22;17097;50.916;5.344;2023-04-06T03:27:03;6.00;99.90
30280;DHT22;17097;50.916;5.344;2023-04-06T03:29:30;5.90;99.90
30280;DHT22;17097;50.916;5.344;2023-04-06T03:31:56;5.90;99.90
30280;DHT22;17097;50.916;5.344;2023-04-06T03:34:24;6.00;99.90
30280;DHT22;17097;50.916;5.344;2023-04-06T03:36:50;6.10;99.90
30280;DHT22;17097;50.916;5.344;2023-04-06T03:39:15;6.00;99.90
30280;DHT22;17097;50.916;5.344;2023-04-06T03:41:41;6.00;99.90
30280;DHT22;17097;50.916;5.344;2023-04-06T03:44:09;6.10;99.90
30280;DHT22;17097;50.916;5.344;2023-04-06T03:46:35;6.10;99.90
30280;DHT22;17097;50.916;5.344;2023-04-06T03:49:01;6.10;99.90
30280;DHT22;17097;50.916;5.344;2023-04-06T03:51:27;6.10;99.90
30280;DHT22;17097;50.916;5.344;2023-04-06T03:53:55;6.20;99.90
30280;DHT22;17097;50.916;5.344;2023-04-06T03:56:23;6.20;99.90
30280;DHT22;17097;50.916;5.344;2023-04-06T03:58:49;6.20;99.90
30280;DHT22;17097;50.916;5.344;2023-04-06T04:01:17;6.20;99.90
30280;DHT22;17097;50.916;5.344;2023-04-06T04:03:43;6.20;99.90
30280;DHT22;17097;50.916;5.344;2023-04-06T04:06:09;6.20;99.90
30280;DHT22;17097;50.916;5.344;2023-04-06T04:08:34;6.30;99.90
30280;DHT22;17097;50.916;5.344;2023-04-06T04:11:03;6.30;99.90
30280;DHT22;17097;50.916;5.344;2023-04-06T04:13:29;6.30;99.90
30280;DHT22;17097;50.916;5.344;2023-04-06T04:15:55;6.30;99.90
30280;DHT22;17097;50.916;5.344;2023-04-06T04:18:21;6.30;99.90
30280;DHT22;17097;50.916;5.344;2023-04-06T04:20:49;6.30;99.90
30280;DHT22;17097;50.916;5.344;2023-04-06T04:23:15;6.30;99.90
30280;DHT22;17097;50.916;5.344;2023-04-06T04:25:43;6.30;99.90
30280;DHT22;17097;50.916;5.344;2023-04-06T04:28:09;6.30;99.90
30280;DHT22;17097;50.916;5.344;2023-04-06T04:30:35;6.30;99.90
30280;DHT22;17097;50.916;5.344;2023-04-06T04:33:01;6.30;99.90
30280;DHT22;17097;50.916;5.344;2023-04-06T04:35:27;6.30;99.90
30280;DHT22;17097;50.916;5.344;2023-04-06T04:37:53;6.30;99.90
30280;DHT22;17097;50.916;5.344;2023-04-06T04:40:18;6.40;99.90
30280;DHT22;17097;50.916;5.344;2023-04-06T04:42:44;6.40;99.90
30280;DHT22;17097;50.916;5.344;2023-04-06T04:45:10;6.40;99.90
30280;DHT22;17097;50.916;5.344;2023-04-06T04:47:36;6.40;99.90
30280;DHT22;17097;50.916;5.344;2023-04-06T04:50:02;6.50;99.90
30280;DHT22;17097;50.916;5.344;2023-04-06T04:52:28;6.50;99.90
30280;DHT22;17097;50.916;5.344;2023-04-06T04:54:54;6.60;99.90
30280;DHT22;17097;50.916;5.344;2023-04-06T04:57:22;6.70;99.90
30280;DHT22;17097;50.916;5.344;2023-04-06T04:59:48;6.90;99.90
30280;DHT22;17097;50.916;5.344;2023-04-06T05:02:15;6.90;99.90
30280;DHT22;17097;50.916;5.344;2023-04-06T05:04:41;6.90;99.90
30280;DHT22;17097;50.916;5.344;2023-04-06T05:07:08;6.90;99.90
30280;DHT22;17097;50.916;5.344;2023-04-06T05:09:35;7.00;99.90
30280;DHT22;17097;50.916;5.344;2023-04-06T05:12:01;7.00;99.90
30280;DHT22;17097;50.916;5.344;2023-04-06T05:14:27;7.00;99.90
30280;DHT22;17097;50.916;5.344;2023-04-06T05:16:53;7.10;99.90
30280;DHT22;17097;50.916;5.344;2023-04-06T05:19:20;7.10;99.90
30280;DHT22;17097;50.916;5.344;2023-04-06T05:21:46;7.10;99.90
30280;DHT22;17097;50.916;5.344;2023-04-06T05:24:15;7.20;99.90
30280;DHT22;17097;50.916;5.344;2023-04-06T05:26:40;7.30;99.90
30280;DHT22;17097;50.916;5.344;2023-04-06T05:29:07;7.20;99.90
30280;DHT22;17097;50.916;5.344;2023-04-06T05:31:32;7.20;99.90
30280;DHT22;17097;50.916;5.344;2023-04-06T05:33:58;7.20;99.90
30280;DHT22;17097;50.916;5.344;2023-04-06T05:36:24;7.30;99.90
30280;DHT22;17097;50.916;5.344;2023-04-06T05:38:50;7.20;99.90
30280;DHT22;17097;50.916;5.344;2023-04-06T05:41:18;7.30;99.90
30280;DHT22;17097;50.916;5.344;2023-04-06T05:43:46;7.30;99.90
30280;DHT22;17097;50.916;5.344;2023-04-06T05:46:13;7.30;99.90
30280;DHT22;17097;50.916;5.344;2023-04-06T05:48:41;7.40;99.90
30280;DHT22;17097;50.916;5.344;2023-04-06T05:51:08;7.50;99.90
30280;DHT22;17097;50.916;5.344;2023-04-06T05:53:33;7.70;99.90
30280;DHT22;17097;50.916;5.344;2023-04-06T05:56:08;7.70;99.90
30280;DHT22;17097;50.916;5.344;2023-04-06T05:58:33;7.70;99.90
30280;DHT22;17097;50.916;5.344;2023-04-06T06:01:00;7.80;99.90
30280;DHT22;17097;50.916;5.344;2023-04-06T06:03:29;7.80;99.90
30280;DHT22;17097;50.916;5.344;2023-04-06T06:06:03;7.80;99.90
30280;DHT22;17097;50.916;5.344;2023-04-06T06:08:29;7.90;99.90
30280;DHT22;17097;50.916;5.344;2023-04-06T06:10:55;8.00;99.90
30280;DHT22;17097;50.916;5.344;2023-04-06T06:13:21;8.10;99.90
30280;DHT22;17097;50.916;5.344;2023-04-06T06:15:48;8.20;99.90
30280;DHT22;17097;50.916;5.344;2023-04-06T06:18:13;8.20;99.90
30280;DHT22;17097;50.916;5.344;2023-04-06T06:20:39;8.20;99.90
30280;DHT22;17097;50.916;5.344;2023-04-06T06:23:05;8.20;99.90
30280;DHT22;17097;50.916;5.344;2023-04-06T06:25:32;8.30;99.90
30280;DHT22;17097;50.916;5.344;2023-04-06T06:27:58;8.40;99.90
30280;DHT22;17097;50.916;5.344;2023-04-06T06:30:25;8.40;99.90
30280;DHT22;17097;50.916;5.344;2023-04-06T06:32:51;8.40;99.90
30280;DHT22;17097;50.916;5.344;2023-04-06T06:35:17;8.40;99.90
30280;DHT22;17097;50.916;5.344;2023-04-06T06:37:45;8.50;99.90
30280;DHT22;17097;50.916;5.344;2023-04-06T06:40:11;8.50;99.90
30280;DHT22;17097;50.916;5.344;2023-04-06T06:42:38;8.50;99.90
30280;DHT22;17097;50.916;5.344;2023-04-06T06:45:06;8.60;99.90
30280;DHT22;17097;50.916;5.344;2023-04-06T06:47:38;8.60;99.90
30280;DHT22;17097;50.916;5.344;2023-04-06T06:50:04;8.70;99.90
30280;DHT22;17097;50.916;5.344;2023-04-06T06:52:30;8.80;99.90
30280;DHT22;17097;50.916;5.344;2023-04-06T06:54:56;8.70;99.90
30280;DHT22;17097;50.916;5.344;2023-04-06T06:57:22;8.60;99.90
30280;DHT22;17097;50.916;5.344;2023-04-06T06:59:50;8.70;99.90
30280;DHT22;17097;50.916;5.344;2023-04-06T07:02:15;8.90;99.90
30280;DHT22;17097;50.916;5.344;2023-04-06T07:04:41;8.90;99.90
30280;DHT22;17097;50.916;5.344;2023-04-06T07:07:07;8.90;99.90
30280;DHT22;17097;50.916;5.344;2023-04-06T07:09:33;9.10;99.90
30280;DHT22;17097;50.916;5.344;2023-04-06T07:11:59;9.10;99.90
30280;DHT22;17097;50.916;5.344;2023-04-06T07:14:26;9.10;99.90
30280;DHT22;17097;50.916;5.344;2023-04-06T07:16:51;9.20;99.90
30280;DHT22;17097;50.916;5.344;2023-04-06T07:19:17;9.30;99.90
30280;DHT22;17097;50.916;5.344;2023-04-06T07:21:43;9.40;99.90
30280;DHT22;17097;50.916;5.344;2023-04-06T07:24:09;9.50;99.90
30280;DHT22;17097;50.916;5.344;2023-04-06T07:26:36;9.70;99.90
30280;DHT22;17097;50.916;5.344;2023-04-06T07:29:02;9.80;99.90
30280;DHT22;17097;50.916;5.344;2023-04-06T07:31:27;9.70;99.90
30280;DHT22;17097;50.916;5.344;2023-04-06T07:33:53;10.00;99.90
30280;DHT22;17097;50.916;5.344;2023-04-06T07:36:20;10.20;99.90
30280;DHT22;17097;50.916;5.344;2023-04-06T07:38:45;10.40;99.90
30280;DHT22;17097;50.916;5.344;2023-04-06T07:41:12;10.60;99.90
30280;DHT22;17097;50.916;5.344;2023-04-06T07:43:38;10.60;99.90
30280;DHT22;17097;50.916;5.344;2023-04-06T07:46:03;10.40;99.90
30280;DHT22;17097;50.916;5.344;2023-04-06T07:48:30;10.60;99.90
30280;DHT22;17097;50.916;5.344;2023-04-06T07:51:03;10.60;99.90
30280;DHT22;17097;50.916;5.344;2023-04-06T07:53:29;10.80;99.90
30280;DHT22;17097;50.916;5.344;2023-04-06T07:55:56;10.60;99.90
30280;DHT22;17097;50.916;5.344;2023-04-06T07:58:21;10.70;99.90
30280;DHT22;17097;50.916;5.344;2023-04-06T08:00:47;10.90;99.90
30280;DHT22;17097;50.916;5.344;2023-04-06T08:03:13;10.90;99.90
30280;DHT22;17097;50.916;5.344;2023-04-06T08:05:38;11.00;99.90
30280;DHT22;17097;50.916;5.344;2023-04-06T08:08:05;10.90;99.90
30280;DHT22;17097;50.916;5.344;2023-04-06T08:10:30;10.90;99.90
30280;DHT22;17097;50.916;5.344;2023-04-06T08:12:56;10.80;99.90
30280;DHT22;17097;50.916;5.344;2023-04-06T08:15:21;10.70;99.90
30280;DHT22;17097;50.916;5.344;2023-04-06T08:17:47;10.60;99.90
30280;DHT22;17097;50.916;5.344;2023-04-06T08:20:13;10.60;99.90
30280;DHT22;17097;50.916;5.344;2023-04-06T08:22:39;10.80;99.90
30280;DHT22;17097;50.916;5.344;2023-04-06T08:25:05;11.00;99.90
30280;DHT22;17097;50.916;5.344;2023-04-06T08:27:33;11.00;99.90
30280;DHT22;17097;50.916;5.344;2023-04-06T08:29:59;11.20;99.90
30280;DHT22;17097;50.916;5.344;2023-04-06T08:32:25;11.30;99.90
30280;DHT22;17097;50.916;5.344;2023-04-06T08:34:54;11.40;99.90
30280;DHT22;17097;50.916;5.344;2023-04-06T08:37:20;11.20;99.90
30280;DHT22;17097;50.916;5.344;2023-04-06T08:39:47;11.30;99.90
30280;DHT22;17097;50.916;5.344;2023-04-06T08:42:21;11.10;99.90
30280;DHT22;17097;50.916;5.344;2023-04-06T08:44:50;11.20;99.90
30280;DHT22;17097;50.916;5.344;2023-04-06T08:47:19;11.50;99.90
30280;DHT22;17097;50.916;5.344;2023-04-06T08:49:46;11.60;99.90
30280;DHT22;17097;50.916;5.344;2023-04-06T08:52:13;11.60;99.90
30280;DHT22;17097;50.916;5.344;2023-04-06T08:54:40;11.60;99.90
30280;DHT22;17097;50.916;5.344;2023-04-06T08:57:07;11.60;99.90
30280;DHT22;17097;50.916;5.344;2023-04-06T08:59:33;11.70;99.90
30280;DHT22;17097;50.916;5.344;2023-04-06T09:02:03;11.70;99.90
30280;DHT22;17097;50.916;5.344;2023-04-06T09:04:32;12.00;99.90
30280;DHT22;17097;50.916;5.344;2023-04-06T09:06:59;12.00;99.90
30280;DHT22;17097;50.916;5.344;2023-04-06T09:09:25;12.00;99.90
30280;DHT22;17097;50.916;5.344;2023-04-06T09:11:53;12.20;99.90
30280;DHT22;17097;50.916;5.344;2023-04-06T09:14:36;12.30;99.90
30280;DHT22;17097;50.916;5.344;2023-04-06T09:17:03;12.30;99.90
30280;DHT22;17097;50.916;5.344;2023-04-06T09:19:29;12.30;99.90
30280;DHT22;17097;50.916;5.344;2023-04-06T09:22:05;12.20;99.90
30280;DHT22;17097;50.916;5.344;2023-04-06T09:27:11;12.10;99.90
30280;DHT22;17097;50.916;5.344;2023-04-06T09:29:37;12.20;99.90
30280;DHT22;17097;50.916;5.344;2023-04-06T09:32:04;12.10;99.90
30280;DHT22;17097;50.916;5.344;2023-04-06T09:34:31;11.90;99.90
30280;DHT22;17097;50.916;5.344;2023-04-06T09:36:56;12.00;99.90
30280;DHT22;17097;50.916;5.344;2023-04-06T09:39:25;11.80;99.90
30280;DHT22;17097;50.916;5.344;2023-04-06T09:41:52;11.60;99.90
30280;DHT22;17097;50.916;5.344;2023-04-06T09:44:18;11.40;99.90
30280;DHT22;17097;50.916;5.344;2023-04-06T09:46:47;11.60;99.90
30280;DHT22;17097;50.916;5.344;2023-04-06T09:49:14;11.90;99.90
30280;DHT22;17097;50.916;5.344;2023-04-06T09:51:52;12.10;99.90
30280;DHT22;17097;50.916;5.344;2023-04-06T09:54:21;11.70;99.90
30280;DHT22;17097;50.916;5.344;2023-04-06T09:56:53;11.50;99.90
30280;DHT22;17097;50.916;5.344;2023-04-06T10:02:05;11.30;99.90
30280;DHT22;17097;50.916;5.344;2023-04-06T10:04:39;11.10;99.90
30280;DHT22;17097;50.916;5.344;2023-04-06T10:07:09;11.00;99.90
30280;DHT22;17097;50.916;5.344;2023-04-06T10:09:40;11.00;99.90
30280;DHT22;17097;50.916;5.344;2023-04-06T10:12:06;10.70;99.90
30280;DHT22;17097;50.916;5.344;2023-04-06T10:14:33;10.60;99.90
30280;DHT22;17097;50.916;5.344;2023-04-06T10:17:03;10.60;99.90
30280;DHT22;17097;50.916;5.344;2023-04-06T10:19:50;10.80;99.90
30280;DHT22;17097;50.916;5.344;2023-04-06T10:22:26;10.70;99.90
30280;DHT22;17097;50.916;5.344;2023-04-06T10:24:54;10.80;99.90
30280;DHT22;17097;50.916;5.344;2023-04-06T10:27:30;11.20;99.90
30280;DHT22;17097;50.916;5.344;2023-04-06T10:30:04;11.20;99.90
30280;DHT22;17097;50.916;5.344;2023-04-06T10:32:38;11.20;99.90
30280;DHT22;17097;50.916;5.344;2023-04-06T10:35:15;11.10;99.90
30280;DHT22;17097;50.916;5.344;2023-04-06T10:38:02;11.20;99.90
30280;DHT22;17097;50.916;5.344;2023-04-06T10:40:31;11.10;99.90
30280;DHT22;17097;50.916;5.344;2023-04-06T10:43:11;11.20;99.90
30280;DHT22;17097;50.916;5.344;2023-04-06T10:45:38;11.20;99.90
30280;DHT22;17097;50.916;5.344;2023-04-06T10:48:16;11.10;99.90
30280;DHT22;17097;50.916;5.344;2023-04-06T10:50:51;11.10;99.90
30280;DHT22;17097;50.916;5.344;2023-04-06T10:53:35;11.10;99.90
30280;DHT22;17097;50.916;5.344;2023-04-06T10:56:02;11.20;99.90
30280;DHT22;17097;50.916;5.344;2023-04-06T10:58:28;11.10;99.90
30280;DHT22;17097;50.916;5.344;2023-04-06T11:00:55;10.90;99.90
30280;DHT22;17097;50.916;5.344;2023-04-06T11:03:24;10.80;99.90
30280;DHT22;17097;50.916;5.344;2023-04-06T11:05:51;10.70;99.90
30280;DHT22;17097;50.916;5.344;2023-04-06T11:08:29;10.50;99.90
30280;DHT22;17097;50.916;5.344;2023-04-06T11:11:09;10.50;99.90
30280;DHT22;17097;50.916;5.344;2023-04-06T11:16:32;10.60;99.90
30280;DHT22;17097;50.916;5.344;2023-04-06T11:19:02;10.50;99.90
30280;DHT22;17097;50.916;5.344;2023-04-06T11:21:36;10.50;99.90
30280;DHT22;17097;50.916;5.344;2023-04-06T11:29:19;10.50;99.90
30280;DHT22;17097;50.916;5.344;2023-04-06T11:31:47;10.50;99.90
30280;DHT22;17097;50.916;5.344;2023-04-06T11:34:19;10.70;99.90
30280;DHT22;17097;50.916;5.344;2023-04-06T11:36:49;10.70;99.90
30280;DHT22;17097;50.916;5.344;2023-04-06T11:39:23;10.70;99.90
30280;DHT22;17097;50.916;5.344;2023-04-06T11:42:07;10.80;99.90
30280;DHT22;17097;50.916;5.344;2023-04-06T11:44:40;11.10;99.90
30280;DHT22;17097;50.916;5.344;2023-04-06T11:47:09;11.00;99.90
30280;DHT22;17097;50.916;5.344;2023-04-06T11:49:43;11.00;99.90
30280;DHT22;17097;50.916;5.344;2023-04-06T11:52:21;11.20;99.90
30280;DHT22;17097;50.916;5.344;2023-04-06T11:54:48;10.90;99.90
30280;DHT22;17097;50.916;5.344;2023-04-06T11:57:14;11.10;99.90
30280;DHT22;17097;50.916;5.344;2023-04-06T11:59:40;11.20;99.90
30280;DHT22;17097;50.916;5.344;2023-04-06T12:02:06;10.90;99.90
30280;DHT22;17097;50.916;5.344;2023-04-06T12:04:38;10.80;99.90
30280;DHT22;17097;50.916;5.344;2023-04-06T12:07:05;10.70;99.90
30280;DHT22;17097;50.916;5.344;2023-04-06T12:09:31;10.60;99.90
30280;DHT22;17097;50.916;5.344;2023-04-06T12:11:57;10.80;99.90
30280;DHT22;17097;50.916;5.344;2023-04-06T12:14:23;10.90;99.90
30280;DHT22;17097;50.916;5.344;2023-04-06T12:16:49;10.60;99.90
30280;DHT22;17097;50.916;5.344;2023-04-06T12:19:15;10.60;99.90
30280;DHT22;17097;50.916;5.344;2023-04-06T12:21:41;10.70;99.90
30280;DHT22;17097;50.916;5.344;2023-04-06T12:24:07;10.50;99.90
30280;DHT22;17097;50.916;5.344;2023-04-06T12:26:34;10.50;99.90
30280;DHT22;17097;50.916;5.344;2023-04-06T12:29:00;10.50;99.90
30280;DHT22;17097;50.916;5.344;2023-04-06T12:31:32;10.40;99.90
30280;DHT22;17097;50.916;5.344;2023-04-06T12:33:58;10.20;99.90
30280;DHT22;17097;50.916;5.344;2023-04-06T12:36:24;10.00;99.90
30280;DHT22;17097;50.916;5.344;2023-04-06T12:38:51;10.10;99.90
30280;DHT22;17097;50.916;5.344;2023-04-06T12:41:17;10.40;99.90
30280;DHT22;17097;50.916;5.344;2023-04-06T12:43:44;10.20;99.90
30280;DHT22;17097;50.916;5.344;2023-04-06T12:46:12;10.10;99.90
30280;DHT22;17097;50.916;5.344;2023-04-06T12:48:43;10.00;99.90
30280;DHT22;17097;50.916;5.344;2023-04-06T12:51:12;9.90;99.90
30280;DHT22;17097;50.916;5.344;2023-04-06T12:53:38;10.00;99.90
30280;DHT22;17097;50.916;5.344;2023-04-06T12:56:13;9.90;99.90
30280;DHT22;17097;50.916;5.344;2023-04-06T12:58:39;9.80;99.90
30280;DHT22;17097;50.916;5.344;2023-04-06T13:01:07;10.20;99.90
30280;DHT22;17097;50.916;5.344;2023-04-06T13:03:33;10.30;99.90
30280;DHT22;17097;50.916;5.344;2023-04-06T13:06:00;10.30;99.90
30280;DHT22;17097;50.916;5.344;2023-04-06T13:08:27;10.20;99.90
30280;DHT22;17097;50.916;5.344;2023-04-06T13:10:53;10.00;99.90
30280;DHT22;17097;50.916;5.344;2023-04-06T13:13:24;9.90;99.90
30280;DHT22;17097;50.916;5.344;2023-04-06T13:15:55;9.90;99.90
30280;DHT22;17097;50.916;5.344;2023-04-06T13:18:21;10.10;99.90
30280;DHT22;17097;50.916;5.344;2023-04-06T13:20:50;9.70;99.90
30280;DHT22;17097;50.916;5.344;2023-04-06T13:23:16;9.70;99.90
30280;DHT22;17097;50.916;5.344;2023-04-06T13:25:42;10.00;99.90
30280;DHT22;17097;50.916;5.344;2023-04-06T13:28:09;10.10;99.90
30280;DHT22;17097;50.916;5.344;2023-04-06T13:30:35;10.10;99.90
30280;DHT22;17097;50.916;5.344;2023-04-06T13:33:02;10.20;99.90
30280;DHT22;17097;50.916;5.344;2023-04-06T13:35:28;10.20;99.90
30280;DHT22;17097;50.916;5.344;2023-04-06T13:37:54;10.20;99.90
30280;DHT22;17097;50.916;5.344;2023-04-06T13:40:20;10.10;99.90
30280;DHT22;17097;50.916;5.344;2023-04-06T13:42:49;10.10;99.90
30280;DHT22;17097;50.916;5.344;2023-04-06T13:45:16;10.30;99.90
30280;DHT22;17097;50.916;5.344;2023-04-06T13:47:44;10.30;99.90
30280;DHT22;17097;50.916;5.344;2023-04-06T13:50:10;10.50;99.90
30280;DHT22;17097;50.916;5.344;2023-04-06T13:52:39;10.30;99.90
30280;DHT22;17097;50.916;5.344;2023-04-06T13:55:05;10.40;99.90
30280;DHT22;17097;50.916;5.344;2023-04-06T13:57:31;10.50;99.90
30280;DHT22;17097;50.916;5.344;2023-04-06T13:59:57;10.80;99.90
30280;DHT22;17097;50.916;5.344;2023-04-06T14:02:22;10.80;99.90
30280;DHT22;17097;50.916;5.344;2023-04-06T14:04:53;10.60;99.90
30280;DHT22;17097;50.916;5.344;2023-04-06T14:07:21;10.50;99.90
30280;DHT22;17097;50.916;5.344;2023-04-06T14:09:49;10.30;99.90
30280;DHT22;17097;50.916;5.344;2023-04-06T14:12:15;10.20;99.90
30280;DHT22;17097;50.916;5.344;2023-04-06T14:14:41;9.90;99.90
30280;DHT22;17097;50.916;5.344;2023-04-06T14:17:07;9.90;99.90
30280;DHT22;17097;50.916;5.344;2023-04-06T14:19:33;10.10;99.90
30280;DHT22;17097;50.916;5.344;2023-04-06T14:21:59;10.10;99.90
30280;DHT22;17097;50.916;5.344;2023-04-06T14:24:27;10.20;99.90
30280;DHT22;17097;50.916;5.344;2023-04-06T14:26:53;10.30;99.90
30280;DHT22;17097;50.916;5.344;2023-04-06T14:29:19;10.20;99.90
30280;DHT22;17097;50.916;5.344;2023-04-06T14:31:48;10.00;99.90
30280;DHT22;17097;50.916;5.344;2023-04-06T14:34:15;10.00;99.90
30280;DHT22;17097;50.916;5.344;2023-04-06T14:36:42;10.00;99.90
30280;DHT22;17097;50.916;5.344;2023-04-06T14:39:08;10.00;99.90
30280;DHT22;17097;50.916;5.344;2023-04-06T14:41:37;10.20;99.90
30280;DHT22;17097;50.916;5.344;2023-04-06T14:44:03;10.10;99.90
30280;DHT22;17097;50.916;5.344;2023-04-06T14:46:30;9.90;99.90
30280;DHT22;17097;50.916;5.344;2023-04-06T14:48:57;10.00;99.90
30280;DHT22;17097;50.916;5.344;2023-04-06T14:51:27;10.20;99.90
30280;DHT22;17097;50.916;5.344;2023-04-06T14:53:53;10.10;99.90
30280;DHT22;17097;50.916;5.344;2023-04-06T14:56:23;10.10;99.90
30280;DHT22;17097;50.916;5.344;2023-04-06T14:58:50;10.50;99.90
30280;DHT22;17097;50.916;5.344;2023-04-06T15:01:19;10.60;99.90
30280;DHT22;17097;50.916;5.344;2023-04-06T15:03:48;10.70;99.90
30280;DHT22;17097;50.916;5.344;2023-04-06T15:06:14;10.70;99.90
30280;DHT22;17097;50.916;5.344;2023-04-06T15:08:41;10.50;99.90
30280;DHT22;17097;50.916;5.344;2023-04-06T15:11:07;10.40;99.90
30280;DHT22;17097;50.916;5.344;2023-04-06T15:13:33;10.50;99.90
30280;DHT22;17097;50.916;5.344;2023-04-06T15:15:58;10.30;99.90
30280;DHT22;17097;50.916;5.344;2023-04-06T15:18:24;10.60;99.90
30280;DHT22;17097;50.916;5.344;2023-04-06T15:20:51;10.40;99.90
30280;DHT22;17097;50.916;5.344;2023-04-06T15:23:17;10.60;99.90
30280;DHT22;17097;50.916;5.344;2023-04-06T15:25:43;10.60;99.90
30280;DHT22;17097;50.916;5.344;2023-04-06T15:28:09;10.20;99.90
30280;DHT22;17097;50.916;5.344;2023-04-06T15:30:35;9.90;99.90
30280;DHT22;17097;50.916;5.344;2023-04-06T15:33:04;10.10;99.90
30280;DHT22;17097;50.916;5.344;2023-04-06T15:35:32;9.90;99.90
30280;DHT22;17097;50.916;5.344;2023-04-06T15:37:59;9.80;99.90
30280;DHT22;17097;50.916;5.344;2023-04-06T15:40:26;9.80;99.90
30280;DHT22;17097;50.916;5.344;2023-04-06T15:42:52;9.80;99.90
30280;DHT22;17097;50.916;5.344;2023-04-06T15:45:18;9.80;99.90
30280;DHT22;17097;50.916;5.344;2023-04-06T15:47:45;9.80;99.90
30280;DHT22;17097;50.916;5.344;2023-04-06T15:50:12;9.80;99.90
30280;DHT22;17097;50.916;5.344;2023-04-06T15:52:39;9.60;99.90
30280;DHT22;17097;50.916;5.344;2023-04-06T15:55:08;9.60;99.90